Time;durP1;ratioP1;P1;durP2;ratioP2;P2;SDS_P1;SDS_P2;PMS_P1;PMS_P2;Temp;Humidity;BMP_temperature;BMP_pressure;BME280_temperature;BME280_humidity;BME280_pressure;Samples;Min_cycle;Max_cycle;Signal;HPM_P1;HPM_P2
2023/03/06 00:00:40;;;;;;;11.98;6.93;;;;;;;3.44;92.72;100452.28;4996381;28;20045;-69
2023/03/06 00:03:06;;;;;;;12.13;6.97;;;;;;;3.38;93.56;100449.63;4986836;28;20104;-69
2023/03/06 00:05:32;;;;;;;10.98;6.50;;;;;;;3.30;93.53;100443.53;4996545;28;20125;-68
2023/03/06 00:07:57;;;;;;;12.13;6.43;;;;;;;3.24;93.99;100446.88;4992822;28;20034;-69
2023/03/06 00:10:26;;;;;;;9.95;5.88;;;;;;;3.17;94.33;100450.16;5003109;28;20026;-69
2023/03/06 00:12:53;;;;;;;13.10;7.43;;;;;;;3.13;94.05;100442.44;4991318;28;20037;-69
2023/03/06 00:15:18;;;;;;;10.70;5.90;;;;;;;3.11;94.19;100446.66;4996396;28;20817;-69
2023/03/06 00:17:44;;;;;;;9.70;6.20;;;;;;;3.03;94.82;100441.41;4993715;28;20037;-69
2023/03/06 00:20:13;;;;;;;10.23;6.18;;;;;;;2.93;93.96;100437.84;4989730;28;20038;-68
2023/03/06 00:22:39;;;;;;;9.98;5.60;;;;;;;2.90;94.35;100431.84;4989890;28;20053;-68
2023/03/06 00:25:06;;;;;;;9.80;5.72;;;;;;;2.87;94.86;100424.97;4994264;28;20040;-69
2023/03/06 00:27:32;;;;;;;11.20;5.60;;;;;;;2.85;94.83;100426.66;4988331;28;20041;-69
2023/03/06 00:29:59;;;;;;;9.05;5.43;;;;;;;2.81;94.56;100424.91;4991929;28;20025;-69
2023/03/06 00:32:25;;;;;;;9.18;5.57;;;;;;;2.83;95.60;100417.25;4990613;28;20038;-69
2023/03/06 00:34:52;;;;;;;9.38;5.75;;;;;;;2.85;95.39;100421.53;5004567;28;20089;-69
2023/03/06 00:37:18;;;;;;;10.45;5.78;;;;;;;2.85;95.31;100421.53;4990075;28;20104;-69
2023/03/06 00:39:44;;;;;;;10.77;6.05;;;;;;;2.86;95.78;100417.31;4995969;28;20069;-69
2023/03/06 00:42:10;;;;;;;12.77;6.35;;;;;;;2.88;95.37;100423.28;4990801;28;20050;-69
2023/03/06 00:44:36;;;;;;;10.52;5.75;;;;;;;2.87;95.80;100411.38;4990643;28;20038;-69
2023/03/06 00:47:01;;;;;;;13.18;6.20;;;;;;;2.87;96.20;100408.81;5000740;28;20025;-69
2023/03/06 00:49:27;;;;;;;11.65;5.57;;;;;;;2.87;96.10;100402.00;4995934;28;20034;-69
2023/03/06 00:51:52;;;;;;;9.85;5.78;;;;;;;2.88;96.32;100406.28;4989487;28;20839;-69
2023/03/06 00:54:17;;;;;;;10.93;5.95;;;;;;;2.88;96.04;100403.72;4993462;28;20035;-69
2023/03/06 00:56:43;;;;;;;11.77;5.97;;;;;;;2.90;95.67;100396.13;5004942;28;20048;-69
2023/03/06 00:59:09;;;;;;;8.93;5.75;;;;;;;2.90;96.29;100393.56;4998969;28;20026;-69
2023/03/06 01:01:35;;;;;;;9.88;5.70;;;;;;;2.90;96.35;100389.28;4982585;28;20037;-69
2023/03/06 01:04:00;;;;;;;8.48;5.47;;;;;;;2.91;96.34;100387.59;4991581;28;20034;-69
2023/03/06 01:06:25;;;;;;;11.68;6.50;;;;;;;2.90;96.43;100383.34;4992912;28;20072;-69
2023/03/06 01:08:51;;;;;;;14.75;6.80;;;;;;;2.91;96.58;100385.03;5001729;28;20037;-69
2023/03/06 01:11:16;;;;;;;12.80;7.40;;;;;;;2.91;96.26;100373.16;4988031;28;20045;-69
2023/03/06 01:13:43;;;;;;;14.65;7.50;;;;;;;2.92;96.38;100374.00;5000020;28;20044;-69
2023/03/06 01:16:12;;;;;;;13.82;7.72;;;;;;;2.93;96.92;100376.56;4997018;28;20046;-69
2023/03/06 01:18:38;;;;;;;14.40;8.27;;;;;;;2.93;96.27;100370.63;5005252;28;20041;-69
2023/03/06 01:21:05;;;;;;;13.25;7.72;;;;;;;2.94;96.64;100373.19;5002741;28;20049;-69
2023/03/06 01:23:31;;;;;;;15.70;8.23;;;;;;;2.96;96.57;100365.59;4992467;28;20145;-69
2023/03/06 01:25:56;;;;;;;15.27;8.05;;;;;;;2.97;96.71;100370.69;5001870;28;20048;-69
2023/03/06 01:28:21;;;;;;;16.48;8.95;;;;;;;3.00;96.36;100359.66;4999283;28;20034;-69
2023/03/06 01:30:47;;;;;;;18.05;9.27;;;;;;;3.00;96.76;100357.13;4992841;28;20082;-69
2023/03/06 01:33:12;;;;;;;15.82;8.38;;;;;;;3.03;96.68;100356.28;4992871;28;20569;-69
2023/03/06 01:35:38;;;;;;;16.75;9.32;;;;;;;3.03;96.75;100346.94;4996946;28;20721;-70
2023/03/06 01:38:03;;;;;;;17.73;9.82;;;;;;;3.03;96.03;100352.06;5005972;28;20044;-69
2023/03/06 01:40:33;;;;;;;14.35;8.35;;;;;;;3.05;96.49;100336.78;5005995;28;20053;-69
2023/03/06 01:43:23;;;;;;;17.65;8.75;;;;;;;3.06;96.58;100341.88;4992918;28;20077;-69
2023/03/06 01:45:48;;;;;;;15.75;8.80;;;;;;;3.07;96.69;100337.66;4995500;28;20038;-69
2023/03/06 01:48:14;;;;;;;14.68;8.38;;;;;;;3.06;96.46;100334.22;4987314;28;20027;-69
2023/03/06 01:50:40;;;;;;;15.73;9.00;;;;;;;3.06;96.21;100329.13;5009342;28;20069;-69
2023/03/06 01:53:06;;;;;;;19.08;10.10;;;;;;;3.06;96.11;100324.00;5000570;28;20129;-69
2023/03/06 01:55:34;;;;;;;17.75;9.73;;;;;;;3.06;96.45;100323.16;5005976;28;20034;-69
2023/03/06 01:58:04;;;;;;;16.88;9.82;;;;;;;3.06;95.95;100321.47;4993175;28;20246;-69
2023/03/06 02:00:29;;;;;;;18.20;9.13;;;;;;;3.07;95.85;100319.78;4990275;28;20046;-69
2023/03/06 02:03:09;;;;;;;19.13;10.30;;;;;;;3.08;95.84;100316.41;4989963;28;20041;-69
2023/03/06 02:05:35;;;;;;;16.90;9.45;;;;;;;3.08;95.91;100317.25;4995096;28;20832;-69
2023/03/06 02:08:04;;;;;;;17.77;10.30;;;;;;;3.10;96.14;100315.56;5000434;28;20073;-69
2023/03/06 02:10:29;;;;;;;17.85;11.02;;;;;;;3.13;95.02;100313.06;4996155;28;20043;-69
2023/03/06 02:12:55;;;;;;;20.92;11.35;;;;;;;3.13;95.14;100312.19;5005529;28;20811;-69
2023/03/06 02:15:23;;;;;;;17.13;10.88;;;;;;;3.14;94.49;100307.09;4991060;28;20038;-69
2023/03/06 02:17:50;;;;;;;19.13;10.77;;;;;;;3.17;93.91;100306.31;4989101;28;20034;-69
2023/03/06 02:20:25;;;;;;;19.45;10.65;;;;;;;3.17;93.24;100307.16;4993975;28;20085;-69
2023/03/06 02:22:56;;;;;;;18.05;9.88;;;;;;;3.18;93.49;100291.00;4991158;28;20077;-69
2023/03/06 02:25:33;;;;;;;22.23;10.70;;;;;;;3.20;93.87;100296.97;4997898;28;20038;-69
2023/03/06 02:28:00;;;;;;;18.75;10.77;;;;;;;3.22;93.16;100291.91;4998004;28;20034;-69
2023/03/06 02:30:27;;;;;;;18.55;10.68;;;;;;;3.23;92.98;100280.88;4988455;28;21684;-69
2023/03/06 02:32:53;;;;;;;20.05;10.52;;;;;;;3.23;93.53;100276.59;5002242;28;20067;-69
2023/03/06 02:35:27;;;;;;;16.98;10.43;;;;;;;3.24;93.24;100285.97;4999336;28;20513;-69
2023/03/06 02:37:53;;;;;;;17.38;10.15;;;;;;;3.26;93.65;100280.91;4994457;28;20026;-69
2023/03/06 02:40:20;;;;;;;16.55;9.65;;;;;;;3.28;93.24;100281.78;4992946;28;20084;-69
2023/03/06 02:42:49;;;;;;;18.40;10.18;;;;;;;3.29;93.33;100280.94;4996720;28;20062;-69
2023/03/06 02:45:20;;;;;;;15.82;8.88;;;;;;;3.30;93.41;100280.09;4996014;28;20053;-69
2023/03/06 02:47:45;;;;;;;19.48;10.55;;;;;;;3.29;93.35;100278.38;4990684;28;20049;-69
2023/03/06 02:50:11;;;;;;;18.77;10.43;;;;;;;3.30;93.41;100267.31;5000759;28;20029;-69
2023/03/06 02:52:36;;;;;;;19.05;11.00;;;;;;;3.29;93.22;100261.34;5002627;28;20041;-69
2023/03/06 02:55:02;;;;;;;18.83;10.98;;;;;;;3.29;92.51;100261.34;4991651;28;20048;-69
2023/03/06 02:57:27;;;;;;;24.10;11.68;;;;;;;3.29;92.65;100268.19;4997330;28;20526;-69
2023/03/06 02:59:53;;;;;;;18.58;11.07;;;;;;;3.28;92.14;100259.66;4990852;28;20129;-69
2023/03/06 03:02:18;;;;;;;22.33;12.50;;;;;;;3.27;92.02;100257.91;4994969;28;20045;-69
2023/03/06 03:04:43;;;;;;;18.80;11.50;;;;;;;3.27;92.70;100260.47;4998895;28;20030;-69
2023/03/06 03:07:09;;;;;;;19.52;11.02;;;;;;;3.27;91.69;100263.03;4994896;28;20067;-69
2023/03/06 03:09:36;;;;;;;21.45;12.05;;;;;;;3.25;91.85;100258.75;4992967;28;20133;-69
2023/03/06 03:12:03;;;;;;;20.58;12.15;;;;;;;3.25;92.12;100259.59;5000138;28;20108;-68
2023/03/06 03:14:29;;;;;;;23.65;12.07;;;;;;;3.22;92.45;100254.47;5009061;28;20026;-68
2023/03/06 03:16:54;;;;;;;21.40;11.18;;;;;;;3.23;92.84;100252.78;5000497;28;20034;-67
2023/03/06 03:19:19;;;;;;;21.23;11.70;;;;;;;3.21;92.62;100252.72;4998818;28;20042;-67
2023/03/06 03:21:45;;;;;;;20.00;11.52;;;;;;;3.22;92.66;100251.03;5003056;28;20499;-67
2023/03/06 03:24:10;;;;;;;22.77;12.60;;;;;;;3.22;92.15;100253.59;4996793;28;20080;-68
2023/03/06 03:26:36;;;;;;;21.85;12.77;;;;;;;3.21;92.71;100252.72;4998881;28;20034;-68
2023/03/06 03:29:03;;;;;;;20.60;11.80;;;;;;;3.21;93.10;100251.88;4995004;28;20141;-68
2023/03/06 03:31:29;;;;;;;19.40;11.32;;;;;;;3.24;93.46;100254.47;5008113;28;20042;-68
2023/03/06 03:33:55;;;;;;;22.65;12.80;;;;;;;3.24;93.27;100249.34;4994591;28;20064;-67
2023/03/06 03:36:20;;;;;;;20.55;12.20;;;;;;;3.25;93.01;100248.53;5003013;28;20041;-68
2023/03/06 03:38:45;;;;;;;22.33;12.38;;;;;;;3.26;94.23;100252.81;4999217;28;20109;-68
2023/03/06 03:41:11;;;;;;;22.73;12.18;;;;;;;3.26;93.86;100243.44;5006494;28;20040;-68
2023/03/06 03:43:36;;;;;;;22.80;12.68;;;;;;;3.27;93.18;100249.41;5000477;28;20137;-68
2023/03/06 03:46:02;;;;;;;20.23;11.00;;;;;;;3.27;93.91;100242.59;4993797;28;20129;-67
2023/03/06 03:48:27;;;;;;;18.88;11.63;;;;;;;3.27;93.62;100240.03;4997346;28;20042;-68
2023/03/06 03:50:53;;;;;;;23.23;12.93;;;;;;;3.27;93.17;100234.06;5008501;28;20068;-68
2023/03/06 03:53:18;;;;;;;22.05;12.95;;;;;;;3.27;93.64;100231.53;4995069;28;20129;-67
2023/03/06 03:55:45;;;;;;;23.45;12.77;;;;;;;3.27;92.04;100232.38;5000517;28;20029;-68
2023/03/06 03:58:11;;;;;;;22.80;12.07;;;;;;;3.28;92.26;100225.59;5005225;28;20656;-68
2023/03/06 04:00:36;;;;;;;19.70;11.57;;;;;;;3.27;92.25;100222.16;5005659;28;20050;-68
2023/03/06 04:03:02;;;;;;;23.25;11.95;;;;;;;3.28;92.51;100223.88;4996867;28;20095;-68
2023/03/06 04:05:27;;;;;;;23.42;13.20;;;;;;;3.29;92.02;100217.94;4998929;28;20065;-68
2023/03/06 04:07:52;;;;;;;24.10;12.88;;;;;;;3.28;91.81;100218.78;4990144;28;20032;-67
2023/03/06 04:10:18;;;;;;;27.42;13.52;;;;;;;3.29;92.35;100219.66;4984164;28;20818;-67
2023/03/06 04:12:43;;;;;;;23.25;13.65;;;;;;;3.27;91.38;100211.09;4995010;28;20050;-67
2023/03/06 04:15:09;;;;;;;25.90;14.18;;;;;;;3.29;91.38;100209.44;4986246;28;20050;-67
2023/03/06 04:17:34;;;;;;;25.60;14.43;;;;;;;3.28;91.73;100207.69;4992285;28;20042;-68
2023/03/06 04:20:01;;;;;;;25.67;13.65;;;;;;;3.28;90.58;100203.47;5001461;28;20038;-68
2023/03/06 04:22:27;;;;;;;24.02;14.77;;;;;;;3.29;90.35;100205.16;4988164;28;20050;-67
2023/03/06 04:24:52;;;;;;;28.02;15.32;;;;;;;3.29;90.73;100204.31;4993893;28;20061;-68
2023/03/06 04:27:17;;;;;;;26.30;15.48;;;;;;;3.29;90.88;100204.31;4993653;28;20187;-67
2023/03/06 04:29:43;;;;;;;29.42;15.85;;;;;;;3.28;90.91;100200.91;4983898;28;20048;-67
2023/03/06 04:32:09;;;;;;;26.90;15.35;;;;;;;3.29;90.43;100200.03;4989706;28;20045;-68
2023/03/06 04:34:35;;;;;;;29.67;15.18;;;;;;;3.29;90.48;100194.94;4996382;28;20125;-68
2023/03/06 04:37:01;;;;;;;31.27;16.67;;;;;;;3.30;90.23;100193.25;4994559;28;20120;-68
2023/03/06 04:39:27;;;;;;;30.55;16.42;;;;;;;3.31;90.74;100197.53;4992468;28;20041;-67
2023/03/06 04:41:52;;;;;;;32.72;17.08;;;;;;;3.30;91.06;100188.13;4992269;28;20041;-68
2023/03/06 04:44:17;;;;;;;32.97;17.40;;;;;;;3.30;90.39;100191.56;5002748;28;20041;-68
2023/03/06 04:46:43;;;;;;;30.80;17.33;;;;;;;3.29;90.87;100189.81;4989650;28;20503;-68
2023/03/06 04:49:08;;;;;;;36.00;17.65;;;;;;;3.29;91.02;100179.63;4992521;28;20799;-67
2023/03/06 04:51:35;;;;;;;30.23;16.33;;;;;;;3.29;90.62;100178.78;4996096;28;20030;-68
2023/03/06 04:54:01;;;;;;;32.33;17.40;;;;;;;3.29;91.09;100177.06;5007209;28;20507;-67
2023/03/06 04:56:27;;;;;;;36.60;18.20;;;;;;;3.29;91.39;100173.69;4998910;28;20532;-68
2023/03/06 04:58:52;;;;;;;32.90;17.92;;;;;;;3.26;91.24;100164.25;4999718;28;20038;-68
2023/03/06 05:01:17;;;;;;;31.77;16.83;;;;;;;3.26;91.06;100164.25;5004302;28;20045;-68
2023/03/06 05:03:43;;;;;;;30.35;16.52;;;;;;;3.27;90.79;100171.09;4994711;28;20037;-68
2023/03/06 05:06:08;;;;;;;35.35;17.45;;;;;;;3.26;90.88;100160.88;4991680;28;20049;-67
2023/03/06 05:08:34;;;;;;;30.83;16.63;;;;;;;3.26;91.16;100160.88;4997615;28;20046;-68
2023/03/06 05:11:01;;;;;;;40.95;18.20;;;;;;;3.24;91.00;100159.97;4998797;28;20033;-68
2023/03/06 05:13:27;;;;;;;33.55;18.33;;;;;;;3.25;91.16;100156.59;4999380;28;20050;-68
2023/03/06 05:15:53;;;;;;;39.00;19.02;;;;;;;3.24;90.29;100154.88;4996730;28;20029;-68
2023/03/06 05:18:19;;;;;;;33.60;17.00;;;;;;;3.25;90.52;100151.47;4990278;28;20181;-68
2023/03/06 05:20:44;;;;;;;39.75;18.50;;;;;;;3.24;90.51;100155.72;5001139;28;20041;-67
2023/03/06 05:23:10;;;;;;;37.45;19.23;;;;;;;3.25;89.80;100160.00;4989848;28;20143;-67
2023/03/06 05:25:40;;;;;;;41.30;19.63;;;;;;;3.26;89.75;100159.16;4993777;28;20042;-67
2023/03/06 05:28:06;;;;;;;36.92;18.15;;;;;;;3.25;89.71;100159.16;4988729;28;20553;-67
2023/03/06 05:30:32;;;;;;;33.60;18.15;;;;;;;3.24;90.25;100160.84;4986458;28;20042;-68
2023/03/06 05:32:58;;;;;;;40.47;20.75;;;;;;;3.26;89.71;100163.44;5000723;28;20096;-67
2023/03/06 05:35:23;;;;;;;39.17;18.52;;;;;;;3.24;89.82;100171.06;4987821;28;20038;-68
2023/03/06 05:37:49;;;;;;;37.30;19.33;;;;;;;3.25;89.75;100162.56;4992477;28;20029;-68
2023/03/06 05:40:16;;;;;;;38.03;19.42;;;;;;;3.27;89.98;100162.56;4987847;28;20589;-68
2023/03/06 05:42:41;;;;;;;35.20;17.95;;;;;;;3.26;89.60;100163.44;4994171;28;20511;-68
2023/03/06 05:45:07;;;;;;;37.45;18.75;;;;;;;3.27;90.21;100171.09;4988468;28;20045;-67
2023/03/06 05:47:33;;;;;;;40.28;21.20;;;;;;;3.26;90.86;100160.88;5008140;28;20121;-67
2023/03/06 05:49:58;;;;;;;37.13;19.42;;;;;;;3.26;90.28;100166.81;4992241;28;20032;-68
2023/03/06 05:52:24;;;;;;;37.05;19.77;;;;;;;3.26;90.03;100166.81;5000359;28;20446;-68
2023/03/06 05:54:52;;;;;;;38.88;19.48;;;;;;;3.27;89.35;100165.97;4996594;28;20048;-68
2023/03/06 05:57:19;;;;;;;42.60;20.17;;;;;;;3.28;89.85;100166.84;5007976;28;20036;-68
2023/03/06 05:59:45;;;;;;;41.17;19.73;;;;;;;3.29;89.92;100166.84;4984449;28;20172;-68
2023/03/06 06:02:11;;;;;;;39.78;19.95;;;;;;;3.28;89.63;100165.16;4988673;28;20045;-67
2023/03/06 06:04:36;;;;;;;43.08;21.42;;;;;;;3.29;90.02;100168.56;5000898;28;20061;-68
2023/03/06 06:07:04;;;;;;;38.88;21.42;;;;;;;3.29;89.69;100164.28;4990470;28;20061;-68
2023/03/06 06:09:30;;;;;;;38.33;19.45;;;;;;;3.29;89.57;100169.41;5005195;28;20092;-67
2023/03/06 06:11:58;;;;;;;39.25;20.00;;;;;;;3.30;89.84;100165.16;4990735;28;20614;-68
2023/03/06 06:14:24;;;;;;;38.97;19.90;;;;;;;3.29;89.56;100164.28;4992364;28;20033;-68
2023/03/06 06:16:49;;;;;;;40.17;20.10;;;;;;;3.32;89.30;100166.88;4996860;28;20038;-68
2023/03/06 06:19:17;;;;;;;45.17;21.88;;;;;;;3.31;89.42;100166.88;4988661;28;20069;-68
2023/03/06 06:21:53;;;;;;;41.33;22.27;;;;;;;3.32;88.69;100163.50;4990173;28;20045;-67
2023/03/06 06:24:21;;;;;;;39.55;19.95;;;;;;;3.31;89.15;100167.75;4995985;28;20034;-68
2023/03/06 06:26:50;;;;;;;45.08;20.88;;;;;;;3.33;88.58;100165.19;4997568;28;20049;-68
2023/03/06 06:29:15;;;;;;;42.47;22.40;;;;;;;3.34;88.38;100161.81;4994660;28;20041;-68
2023/03/06 06:31:40;;;;;;;41.35;22.23;;;;;;;3.37;88.94;100160.16;4994283;28;20085;-68
2023/03/06 06:34:08;;;;;;;43.95;22.30;;;;;;;3.35;88.80;100160.97;4992502;28;20038;-69
2023/03/06 06:36:34;;;;;;;44.65;21.63;;;;;;;3.37;88.76;100162.69;4990572;28;20038;-68
2023/03/06 06:38:59;;;;;;;46.30;23.38;;;;;;;3.39;88.88;100166.13;4981646;28;20246;-68
2023/03/06 06:41:25;;;;;;;46.28;23.48;;;;;;;3.38;88.52;100164.38;4988831;28;20029;-68
2023/03/06 06:43:51;;;;;;;45.00;23.65;;;;;;;3.39;88.37;100163.56;4992946;28;20153;-68
2023/03/06 06:46:16;;;;;;;41.15;21.65;;;;;;;3.40;88.84;100159.31;4995396;28;20056;-68
2023/03/06 06:48:42;;;;;;;44.78;22.90;;;;;;;3.40;88.56;100159.31;4990567;28;20429;-68
2023/03/06 06:51:07;;;;;;;44.85;23.33;;;;;;;3.40;88.39;100154.22;4987793;28;20472;-68
2023/03/06 06:53:33;;;;;;;40.53;21.35;;;;;;;3.41;88.09;100161.88;5003333;28;20453;-68
2023/03/06 06:55:58;;;;;;;45.10;22.50;;;;;;;3.42;88.53;100160.19;4998701;28;20056;-68
2023/03/06 06:58:24;;;;;;;45.70;23.73;;;;;;;3.45;88.62;100160.22;4993162;28;20447;-68
2023/03/06 07:00:50;;;;;;;44.55;23.27;;;;;;;3.46;88.68;100162.78;4988899;28;20038;-68
2023/03/06 07:03:16;;;;;;;45.03;23.40;;;;;;;3.50;88.63;100167.06;4986540;28;20565;-68
2023/03/06 07:05:41;;;;;;;48.22;23.40;;;;;;;3.50;87.34;100161.97;4987243;28;20044;-68
2023/03/06 07:08:07;;;;;;;46.90;24.08;;;;;;;3.57;88.36;100170.56;4998209;28;20034;-68
2023/03/06 07:10:33;;;;;;;46.80;23.63;;;;;;;3.60;88.19;100172.28;4991677;28;20030;-69
2023/03/06 07:12:58;;;;;;;43.45;22.25;;;;;;;3.65;87.82;100162.94;4991565;28;20173;-68
2023/03/06 07:15:25;;;;;;;44.55;22.98;;;;;;;3.69;87.39;100164.72;4992795;28;20053;-68
2023/03/06 07:17:52;;;;;;;43.45;23.25;;;;;;;3.74;87.90;100175.81;4994644;28;20034;-68
2023/03/06 07:20:18;;;;;;;46.25;22.88;;;;;;;3.76;87.31;100169.03;4998096;28;20068;-68
2023/03/06 07:22:44;;;;;;;41.10;21.58;;;;;;;3.83;86.64;100165.69;4995160;28;20026;-69
2023/03/06 07:25:09;;;;;;;42.97;22.08;;;;;;;3.81;86.47;100170.81;4992193;28;20046;-68
2023/03/06 07:27:35;;;;;;;43.60;22.02;;;;;;;3.82;85.57;100172.53;4989518;28;20041;-69
2023/03/06 07:30:00;;;;;;;42.88;23.00;;;;;;;3.83;84.97;100165.69;4991738;28;20037;-69
2023/03/06 07:32:26;;;;;;;41.53;20.83;;;;;;;3.88;85.78;100175.13;4989177;28;20309;-69
2023/03/06 07:34:51;;;;;;;41.40;20.92;;;;;;;3.90;85.29;100165.78;4996667;28;20526;-68
2023/03/06 07:37:17;;;;;;;40.05;21.70;;;;;;;3.96;85.43;100160.72;4993015;28;20034;-69
2023/03/06 07:39:42;;;;;;;44.78;22.40;;;;;;;4.05;85.64;100165.03;4992205;28;20033;-69
2023/03/06 07:42:12;;;;;;;46.17;23.00;;;;;;;4.12;84.77;100165.94;4992667;28;20240;-69
2023/03/06 07:44:37;;;;;;;42.97;21.52;;;;;;;4.16;84.51;100163.41;4990039;28;20030;-69
2023/03/06 07:47:03;;;;;;;40.65;19.88;;;;;;;4.19;83.85;100166.00;4991966;28;20036;-68
2023/03/06 07:49:30;;;;;;;42.63;20.83;;;;;;;4.23;83.61;100160.06;5004201;28;20062;-69
2023/03/06 07:51:55;;;;;;;43.00;22.40;;;;;;;4.29;83.08;100166.94;4996758;28;20045;-68
2023/03/06 07:54:20;;;;;;;40.17;20.70;;;;;;;4.37;83.49;100178.06;4995986;28;20045;-68
2023/03/06 07:56:49;;;;;;;39.55;20.00;;;;;;;4.41;82.84;100160.19;4996963;28;20042;-68
2023/03/06 07:59:15;;;;;;;33.97;18.15;;;;;;;4.44;82.16;100170.47;4983864;28;20407;-69
2023/03/06 08:01:40;;;;;;;32.28;17.50;;;;;;;4.45;83.08;100168.72;4996411;28;20421;-69
2023/03/06 08:04:06;;;;;;;40.22;20.58;;;;;;;4.45;81.07;100155.94;4997543;28;20053;-69
2023/03/06 08:06:31;;;;;;;35.42;18.85;;;;;;;4.48;80.26;100159.38;4991876;28;20049;-69
2023/03/06 08:08:57;;;;;;;34.78;17.40;;;;;;;4.58;81.60;100163.72;4984435;28;20508;-68
2023/03/06 08:11:25;;;;;;;35.15;18.67;;;;;;;4.61;80.58;100160.31;4987739;28;20049;-68
2023/03/06 08:13:52;;;;;;;35.38;18.75;;;;;;;4.71;80.63;100167.22;4988618;28;20038;-68
2023/03/06 08:16:23;;;;;;;38.88;18.15;;;;;;;4.84;79.86;100163.84;4996976;28;20045;-68
2023/03/06 08:18:49;;;;;;;37.63;21.27;;;;;;;4.85;79.72;100159.59;4990225;28;20042;-69
2023/03/06 08:21:17;;;;;;;39.55;21.27;;;;;;;4.94;79.54;100165.63;4975291;28;20037;-68
2023/03/06 08:23:43;;;;;;;40.28;20.40;;;;;;;5.04;79.14;100154.53;5001580;28;20124;-68
2023/03/06 08:26:11;;;;;;;40.33;20.25;;;;;;;5.16;78.15;100140.94;5003140;28;20026;-68
2023/03/06 08:28:37;;;;;;;41.25;20.58;;;;;;;5.31;78.56;100155.50;5005481;28;20119;-69
2023/03/06 08:31:12;;;;;;;42.75;21.52;;;;;;;5.39;77.83;100154.69;4994645;28;20141;-68
2023/03/06 08:33:39;;;;;;;44.85;20.98;;;;;;;5.36;77.14;100139.28;4995960;28;20046;-68
2023/03/06 08:36:05;;;;;;;41.88;22.30;;;;;;;5.47;77.38;100154.69;4997770;28;20448;-68
2023/03/06 08:38:30;;;;;;;39.22;20.83;;;;;;;5.35;76.31;100150.38;4994669;28;20041;-68
2023/03/06 08:40:56;;;;;;;42.97;21.58;;;;;;;5.37;77.03;100143.53;4999260;28;20029;-68
2023/03/06 08:43:21;;;;;;;42.05;21.92;;;;;;;5.33;77.77;100154.66;5002970;28;20041;-68
2023/03/06 08:45:54;;;;;;;42.33;21.52;;;;;;;5.29;76.95;100144.38;5002372;28;20034;-69
2023/03/06 08:48:19;;;;;;;40.00;21.83;;;;;;;5.19;77.10;100156.31;4995900;28;20057;-68
2023/03/06 08:50:45;;;;;;;37.47;20.48;;;;;;;5.20;77.01;100147.78;4997763;28;20038;-68
2023/03/06 08:53:10;;;;;;;35.80;19.40;;;;;;;5.22;77.46;100151.19;4998889;28;20059;-69
2023/03/06 08:55:36;;;;;;;39.97;20.55;;;;;;;5.28;77.13;100160.63;4992836;28;20131;-68
2023/03/06 08:58:03;;;;;;;38.08;19.88;;;;;;;5.32;76.71;100158.06;4999813;28;20030;-68
2023/03/06 09:00:29;;;;;;;35.28;19.17;;;;;;;5.19;75.86;100139.22;4985037;28;20185;-69
2023/03/06 09:02:55;;;;;;;34.63;18.75;;;;;;;5.28;76.02;100155.50;4998491;28;20041;-69
2023/03/06 09:05:20;;;;;;;32.70;17.63;;;;;;;5.25;76.53;100153.75;4994231;28;20682;-69
2023/03/06 09:07:46;;;;;;;33.33;17.67;;;;;;;5.31;76.24;100140.97;4998768;28;20029;-65
2023/03/06 09:10:16;;;;;;;32.70;16.95;;;;;;;5.22;74.58;100117.88;4995230;28;20176;-65
2023/03/06 09:12:41;;;;;;;31.30;16.92;;;;;;;5.28;75.25;100140.13;4996647;28;20042;-65
2023/03/06 09:15:07;;;;;;;38.70;19.98;;;;;;;5.25;74.80;100135.00;4998623;28;20038;-64
2023/03/06 09:17:33;;;;;;;37.08;19.63;;;;;;;5.20;74.86;100134.97;4988319;28;20495;-65
2023/03/06 09:19:58;;;;;;;34.80;19.05;;;;;;;5.10;74.38;100138.38;5005224;28;20064;-66
2023/03/06 09:22:23;;;;;;;32.42;18.35;;;;;;;5.07;75.50;100146.03;4996526;28;20983;-65
2023/03/06 09:24:49;;;;;;;36.50;18.95;;;;;;;5.20;75.82;100153.75;4998406;28;20042;-66
2023/03/06 09:27:15;;;;;;;37.72;19.50;;;;;;;5.36;74.71;100131.59;4996473;28;20097;-65
2023/03/06 09:29:40;;;;;;;39.10;19.90;;;;;;;5.45;74.12;100128.22;4996627;28;20061;-66
2023/03/06 09:32:06;;;;;;;37.08;19.65;;;;;;;5.52;73.68;100123.06;5016552;28;20109;-65
2023/03/06 09:34:31;;;;;;;37.22;19.65;;;;;;;5.72;73.02;100118.81;4997817;28;20130;-65
2023/03/06 09:36:57;;;;;;;40.75;21.63;;;;;;;5.77;73.28;100122.28;4993520;28;20058;-66
2023/03/06 09:39:24;;;;;;;32.80;18.30;;;;;;;5.74;70.88;100085.50;4993804;28;20045;-65
2023/03/06 09:41:51;;;;;;;36.63;19.08;;;;;;;5.64;71.47;100100.03;4997195;28;20056;-65
2023/03/06 09:44:24;;;;;;;34.35;18.92;;;;;;;5.69;71.86;100111.13;4996770;28;20105;-65
2023/03/06 09:47:16;;;;;;;41.47;20.17;;;;;;;5.82;72.84;100124.81;4997487;28;20040;-65
2023/03/06 09:50:00;;;;;;;35.88;19.02;;;;;;;5.93;73.15;100123.13;4996063;28;20152;-66
2023/03/06 09:52:58;;;;;;;44.30;21.08;;;;;;;5.93;72.71;100119.72;4993209;28;20054;-66
2023/03/06 09:55:26;;;;;;;35.00;19.35;;;;;;;5.88;72.49;100116.28;4993757;28;20049;-68
2023/03/06 09:58:03;;;;;;;36.70;19.88;;;;;;;5.89;71.73;100107.72;4994721;28;20152;-68
2023/03/06 10:00:40;;;;;;;37.60;19.33;;;;;;;5.87;71.41;100107.75;5003687;28;20144;-68
2023/03/06 10:03:30;;;;;;;36.45;18.88;;;;;;;5.81;71.94;100104.31;4997868;28;20084;-67
2023/03/06 10:06:06;;;;;;;37.78;18.77;;;;;;;5.82;69.61;100070.09;4992355;28;20129;-67
2023/03/06 10:08:59;;;;;;;32.17;17.60;;;;;;;5.87;69.11;100060.72;4996798;28;20041;-67
2023/03/06 10:11:34;;;;;;;32.78;18.10;;;;;;;5.97;70.53;100083.78;4996409;28;20098;-67
2023/03/06 10:14:20;;;;;;;32.08;17.67;;;;;;;6.19;70.41;100087.19;4989638;28;20096;-67
2023/03/06 10:16:46;;;;;;;28.63;16.73;;;;;;;6.34;68.58;100052.09;4994612;28;20042;-68
2023/03/06 10:19:15;;;;;;;30.35;15.63;;;;;;;6.51;67.82;100017.78;4995859;28;20155;-68
2023/03/06 10:21:58;;;;;;;28.25;13.60;;;;;;;6.65;67.01;100008.31;4997079;28;20097;-67
2023/03/06 10:24:45;;;;;;;26.80;14.75;;;;;;;6.75;65.66;99989.44;4995843;28;20042;-67
2023/03/06 10:27:32;;;;;;;30.98;14.65;;;;;;;6.97;65.90;99990.19;4997998;28;20042;-67
2023/03/06 10:30:43;;;;;;;26.23;14.70;;;;;;;6.97;64.51;99961.91;4996994;28;20649;-67
2023/03/06 10:33:39;;;;;;;21.25;12.98;;;;;;;6.95;65.09;99973.91;4993077;28;20121;-67
2023/03/06 10:36:05;;;;;;;24.35;13.40;;;;;;;6.79;64.63;99986.00;4994604;28;20849;-67
2023/03/06 10:38:30;;;;;;;21.23;13.07;;;;;;;6.88;64.04;99973.94;4987671;28;20034;-67
2023/03/06 10:41:10;;;;;;;26.70;13.90;;;;;;;6.83;66.38;100010.78;5000466;28;20036;-68
2023/03/06 10:43:38;;;;;;;23.13;13.50;;;;;;;6.70;65.00;99979.19;5008784;28;20073;-68
2023/03/06 10:46:05;;;;;;;20.95;11.77;;;;;;;6.50;64.15;99975.84;4993814;28;20470;-68
2023/03/06 10:48:34;;;;;;;26.35;13.25;;;;;;;6.34;65.19;99993.06;5003973;28;20041;-69
2023/03/06 10:51:21;;;;;;;26.25;13.57;;;;;;;6.30;65.71;100018.72;5008603;28;20153;-67
2023/03/06 10:53:54;;;;;;;23.23;13.30;;;;;;;6.28;65.74;100023.03;4992734;28;20033;-67
2023/03/06 10:56:25;;;;;;;27.20;13.90;;;;;;;6.18;66.82;100019.63;4996789;28;20040;-67
2023/03/06 10:59:17;;;;;;;25.88;15.05;;;;;;;6.05;65.68;100014.53;4994457;28;20034;-68
2023/03/06 11:01:45;;;;;;;25.38;14.38;;;;;;;6.11;66.00;100022.22;5000181;28;20071;-66
2023/03/06 11:04:27;;;;;;;29.30;16.33;;;;;;;6.33;66.72;100031.53;5005708;28;20456;-67
2023/03/06 11:07:23;;;;;;;32.83;16.05;;;;;;;6.64;67.14;100040.88;4997181;28;20046;-67
2023/03/06 11:09:57;;;;;;;;;;;;;;;6.78;65.80;100015.09;4995338;28;20040;-67
2023/03/06 11:12:31;;;;;;;31.75;15.75;;;;;;;6.68;65.71;100008.28;4992826;28;19928;-67
2023/03/06 11:15:07;;;;;;;26.60;16.50;;;;;;;6.62;65.84;100016.03;5007009;28;20572;-67
2023/03/06 11:17:46;;;;;;;30.33;16.63;;;;;;;6.82;65.27;100002.22;4995213;28;20050;-67
2023/03/06 11:20:26;;;;;;;27.27;15.18;;;;;;;6.97;65.29;100005.59;4991902;28;20028;-68
2023/03/06 11:23:15;;;;;;;28.60;15.63;;;;;;;7.04;63.71;99951.56;4998539;28;20030;-67